Latest Weather Observations for Lismore Airport

IDN60801

Issued at 9:02 pm EDT Tuesday 21 February 2017 (issued every 30 minutes, with the page automatically refreshed every 10 minutes)

About weather observations | Map of weather stations | Latest weather observations for NSW | Other Formats
Station Details ID: 058214 Name: LISMORE AIRPORT AWS Lat: -28.83 Lon: 153.26 Height: 9.21 m
Data from the previous 72 hours. | See also: Recent months at Lismore Airport
Date/Time
EDT
Temp
°C
App
Temp
°C
Dew
Point
°C
Rel
Hum
%
Delta-T
°C
Wind Press
QNH
hPa
Press
MSL
hPa
Rain since
9am
mm
Dir  Spd
km/h
Gust
km/h
Spd
kts
Gust
kts
21/09:00pm 23.0 26.0 18.5 76 2.8 CALM 0 0 0 0 1019.5 1019.5 0.0
21/08:30pm 23.9 25.4 17.6 68 3.9 ESE 6 11 3 6 1019.4 1019.4 6.6
21/08:00pm 23.9 25.3 17.9 69 3.7 E 7 13 4 7 1019.1 1019.1 6.6
21/07:30pm 24.2 25.3 17.9 68 3.9 ESE 9 13 5 7 1018.8 1018.8 6.6
21/07:00pm 24.8 24.7 17.8 65 4.4 SE 15 19 8 10 1018.2 1018.2 6.6
21/06:30pm 25.1 24.4 17.3 62 4.9 SE 17 24 9 13 1017.8 1017.8 6.6
21/06:00pm 25.5 24.4 17.7 62 4.9 SE 20 26 11 14 1017.6 1017.6 6.6
21/05:30pm 25.5 24.4 17.4 61 5.1 SE 19 26 10 14 1017.3 1017.3 6.6
21/05:00pm 26.0 25.5 19.2 66 4.4 SE 20 26 11 14 1017.1 1017.1 6.6
21/04:30pm 25.7 25.4 19.6 69 3.9 SE 20 28 11 15 1017.3 1017.3 6.6
21/04:00pm 26.0 26.1 19.9 69 4.0 SE 19 24 10 13 1017.1 1017.1 6.6
21/03:30pm 25.8 25.6 19.4 67 4.1 SE 19 26 10 14 1017.1 1017.1 6.6
21/03:00pm 25.5 25.8 20.3 73 3.4 SSE 19 24 10 13 1017.1 1017.1 6.6
21/02:30pm 26.4 27.2 20.7 71 3.7 SSE 17 22 9 12 1017.1 1017.1 6.6
21/02:00pm 25.7 27.0 20.9 75 3.2 S 15 19 8 10 1017.3 1017.3 6.6
21/01:30pm 25.2 26.9 20.2 74 3.3 S 11 15 6 8 1017.7 1017.7 6.6
21/01:00pm 24.6 27.1 21.1 81 2.3 S 9 13 5 7 1017.8 1017.8 6.6
21/12:30pm 22.5 25.0 20.2 87 1.5 SSE 7 11 4 6 1018.3 1018.3 6.6
21/12:00pm 22.0 25.9 20.3 90 1.1 CALM 0 0 0 0 1018.5 1018.5 6.6
21/11:30am 21.3 24.5 19.8 91 1.0 SSW 2 7 1 4 1018.8 1018.8 6.4
21/11:00am 20.8 22.4 19.1 90 1.1 SSE 9 11 5 6 1019.0 1019.0 5.8
21/10:30am 20.5 21.6 18.8 90 1.1 S 11 13 6 7 1019.1 1019.1 5.2
21/10:00am 21.0 21.8 19.1 89 1.2 S 13 15 7 8 1018.8 1018.8 2.8
21/09:30am 20.8 22.4 18.2 85 1.6 SSE 7 11 4 6 1018.4 1018.4 2.4
21/09:00am 22.1 24.2 18.1 78 2.5 NNW 4 7 2 4 1018.2 1018.2 0.0
21/08:30am 21.6 24.4 18.8 84 1.8 N 2 7 1 4 1017.8 1017.8 0.0
21/08:00am 20.8 22.7 18.9 89 1.2 NW 7 9 4 5 1017.4 1017.4 0.0
21/07:40am 20.4 22.0 19.1 92 0.8 N 9 11 5 6 1017.0 1017.0 0.0
21/07:30am 20.3 22.2 19.0 92 0.8 N 7 9 4 5 1016.8 1016.8 0.0
21/07:26am 20.3 22.2 19.0 92 0.8 N 7 9 4 5 1016.7 1016.7 0.0
21/07:00am 20.2 23.4 18.9 92 0.8 CALM 0 6 0 3 1016.3 1016.3 0.0
21/06:30am 20.2 23.4 18.9 92 0.8 CALM 0 0 0 0 1015.9 1015.9 0.0
21/06:00am 20.4 23.7 19.1 92 0.8 CALM 0 0 0 0 1015.4 1015.4 0.0
21/05:30am 20.4 23.7 19.1 92 0.8 CALM 0 0 0 0 1015.2 1015.2 0.0
21/05:00am 20.4 23.7 19.2 93 0.8 CALM 0 0 0 0 1015.0 1015.0 0.0
21/04:30am 20.6 24.0 19.3 92 0.8 CALM 0 0 0 0 1014.7 1014.7 0.0
21/04:00am 20.6 22.2 19.1 91 0.9 NNW 9 11 5 6 1014.5 1014.5 0.0
21/03:30am 20.5 22.8 19.5 94 0.6 N 6 9 3 5 1014.5 1014.5 0.0
21/03:00am 20.7 22.9 19.5 93 0.8 N 7 7 4 4 1014.6 1014.6 0.0
21/02:30am 20.6 22.9 19.4 93 0.8 NNW 6 9 3 5 1014.7 1014.7 0.0
21/02:00am 20.4 23.6 18.9 91 0.9 CALM 0 0 0 0 1014.9 1014.9 0.0
21/01:30am 20.0 22.9 18.3 90 1.1 CALM 0 0 0 0 1015.2 1015.2 0.0
21/01:00am 20.8 24.0 18.9 89 1.2 CALM 0 0 0 0 1015.2 1015.2 0.0
21/12:30am 21.4 24.9 19.5 89 1.2 CALM 0 0 0 0 1015.2 1015.2 0.0
21/12:00am 20.9 24.2 19.0 89 1.2 CALM 0 0 0 0 1015.4 1015.4 0.0
 
Date/Time
EDT
Temp
°C
App
Temp
°C
Dew
Point
°C
Rel
Hum
%
Delta-T
°C
Wind Press
QNH
hPa
Press
MSL
hPa
Rain since
9am
mm
Dir  Spd
km/h
Gust
km/h
Spd
kts
Gust
kts
20/11:30pm 20.9 24.1 18.8 88 1.3 CALM 0 0 0 0 1015.3 1015.3 0.0
20/11:00pm 21.4 24.6 18.8 85 1.6 CALM 0 0 0 0 1015.2 1015.2 0.0
20/10:30pm 21.6 24.9 19.0 85 1.6 CALM 0 0 0 0 1015.0 1015.0 0.0
20/10:00pm 21.9 24.9 18.5 81 2.1 CALM 0 0 0 0 1014.7 1014.7 0.0
20/09:30pm 23.4 26.6 18.9 76 2.9 CALM 0 6 0 3 1014.3 1014.3 0.0
20/09:00pm 24.1 26.1 19.2 74 3.1 E 7 13 4 7 1013.7 1013.7 0.0
20/08:30pm 24.1 25.9 18.7 72 3.4 E 7 13 4 7 1013.2 1013.2 0.0
20/08:00pm 24.6 25.3 18.8 70 3.7 ESE 13 17 7 9 1012.7 1012.7 0.0
20/07:30pm 24.7 24.8 18.4 68 4.0 ESE 15 20 8 11 1012.1 1012.1 0.0
20/07:00pm 25.6 24.8 18.0 63 4.8 ESE 19 24 10 13 1011.6 1011.6 0.0
20/06:30pm 26.3 25.3 17.6 58 5.5 ESE 19 26 10 14 1010.9 1010.9 0.0
20/06:00pm 26.9 26.0 18.2 59 5.5 SE 20 30 11 16 1010.6 1010.6 0.0
20/05:30pm 26.9 26.2 17.4 56 6.0 ESE 17 28 9 15 1010.0 1010.0 0.0
20/05:00pm 28.0 26.9 17.2 52 6.8 ESE 19 26 10 14 1010.0 1010.0 0.0
20/04:30pm 27.9 26.5 16.5 50 7.1 SE 19 26 10 14 1009.8 1009.8 0.0
20/04:00pm 29.1 28.1 15.6 44 8.3 SE 15 22 8 12 1009.5 1009.5 0.0
20/03:30pm 28.9 27.7 16.1 46 7.9 SE 17 26 9 14 1009.6 1009.6 0.0
20/03:00pm 30.6 30.3 10.0 28 11.7 SSW 2 9 1 5 1009.6 1009.6 0.0
20/02:30pm 29.7 26.8 8.2 26 11.8 E 13 20 7 11 1010.0 1010.0 0.0
20/02:00pm 29.3 26.3 7.8 26 11.7 S 13 22 7 12 1010.3 1010.3 0.0
20/01:30pm 29.5 28.0 12.0 34 10.2 SSE 11 24 6 13 1010.6 1010.6 0.0
20/01:00pm 29.0 27.8 12.8 36 9.5 SSE 11 19 6 10 1011.1 1011.1 0.0
20/12:30pm 28.7 26.6 11.3 34 10.0 SW 13 20 7 11 1011.6 1011.6 0.0
20/12:00pm 27.9 24.5 10.6 34 9.8 SW 19 30 10 16 1011.7 1011.7 0.0
20/11:30am 27.6 23.2 10.3 34 9.7 SSW 24 32 13 17 1011.9 1011.9 0.0
20/11:00am 26.9 23.2 11.4 38 8.8 SW 22 28 12 15 1011.8 1011.8 0.0
20/10:30am 26.8 25.6 16.1 52 6.6 SSW 17 22 9 12 1012.0 1012.0 0.0
20/10:00am 25.1 25.3 16.8 60 5.1 WSW 11 17 6 9 1011.9 1011.9 0.0
20/09:30am 23.6 26.8 18.9 75 3.0 CALM 0 0 0 0 1011.9 1011.9 0.0
20/09:00am 22.9 26.7 20.1 84 1.8 CALM 0 0 0 0 1011.6 1011.6 10.2
20/08:30am 21.5 25.2 20.0 91 1.0 CALM 0 0 0 0 1011.4 1011.4 10.2
20/08:00am 20.7 22.8 19.4 92 0.8 NNW 7 9 4 5 1010.9 1010.9 10.2
20/07:30am 20.2 22.3 19.0 93 0.8 N 6 7 3 4 1010.4 1010.4 10.2
20/07:00am 20.0 23.0 18.5 91 0.9 CALM 0 6 0 3 1009.6 1009.6 10.2
20/06:30am 19.7 21.1 18.7 94 0.6 WNW 9 11 5 6 1009.3 1009.3 10.2
20/06:00am 20.0 21.9 19.0 94 0.6 NE 7 9 4 5 1008.6 1008.6 10.2
20/05:30am 19.9 23.0 18.7 93 0.7 CALM 0 0 0 0 1008.2 1008.2 10.2
20/05:00am 20.1 23.3 18.9 93 0.8 CALM 0 0 0 0 1007.5 1007.5 10.2
20/04:30am 20.2 23.2 19.2 94 0.6 ESE 2 9 1 5 1007.2 1007.2 10.2
20/04:00am 20.2 23.5 19.0 93 0.8 CALM 0 0 0 0 1007.2 1007.2 10.2
20/03:30am 20.5 23.0 19.0 91 0.9 SW 4 7 2 4 1007.5 1007.5 10.2
20/03:00am 20.5 22.5 19.2 92 0.8 WNW 7 11 4 6 1006.8 1006.8 10.2
20/02:30am 20.5 21.5 19.5 94 0.6 NNW 13 15 7 8 1006.8 1006.8 10.2
20/02:00am 20.5 21.5 19.5 94 0.6 NNW 13 15 7 8 1007.8 1007.8 10.2
20/01:30am 20.4 21.4 19.4 94 0.6 NNW 13 17 7 9 1008.6 1008.6 10.0
20/01:00am 20.4 21.6 19.1 92 0.8 N 11 17 6 9 1009.2 1009.2 9.4
20/12:30am 20.8 22.4 19.1 90 1.1 NNW 9 13 5 7 1010.0 1010.0 8.8
20/12:00am 20.8 21.7 19.3 91 0.9 NW 13 20 7 11 1010.3 1010.3 7.6
 
Date/Time
EDT
Temp
°C
App
Temp
°C
Dew
Point
°C
Rel
Hum
%
Delta-T
°C
Wind Press
QNH
hPa
Press
MSL
hPa
Rain since
9am
mm
Dir  Spd
km/h
Gust
km/h
Spd
kts
Gust
kts
19/11:30pm 21.6 21.4 18.6 83 1.9 W 17 30 9 16 1009.8 1009.8 3.4
19/11:00pm 22.6 23.4 19.8 84 1.8 NW 15 22 8 12 1009.6 1009.6 2.6
19/10:30pm 22.4 26.4 20.5 89 1.2 CALM 0 0 0 0 1009.3 1009.3 2.2
19/10:00pm 22.3 25.1 20.8 91 1.0 NNE 7 7 4 4 1009.0 1009.0 2.0
19/09:30pm 22.6 25.5 20.7 89 1.2 NNW 6 7 3 4 1008.5 1008.5 1.4
19/09:00pm 22.4 24.3 20.5 89 1.2 N 11 13 6 7 1007.5 1007.5 1.2
19/08:30pm 22.6 23.7 20.5 88 1.4 NNW 15 17 8 9 1006.9 1006.9 1.2
19/08:00pm 23.1 24.0 20.1 83 1.9 N 15 19 8 10 1006.7 1006.7 1.2
19/07:30pm 22.9 24.2 20.8 88 1.4 NNE 15 19 8 10 1006.2 1006.2 1.2
19/07:00pm 23.0 25.0 20.7 87 1.5 NNW 11 17 6 9 1006.0 1006.0 1.2
19/06:30pm 23.4 25.7 21.3 88 1.4 N 11 15 6 8 1005.6 1005.6 1.2
19/06:00pm 23.8 26.3 21.7 88 1.4 N 11 13 6 7 1005.6 1005.6 1.2
19/05:30pm 24.6 27.6 21.9 85 1.8 NNE 9 11 5 6 1005.6 1005.6 1.2
19/05:00pm 24.5 27.2 21.4 83 2.1 N 9 13 5 7 1005.6 1005.6 0.8
19/04:30pm 25.0 27.1 20.9 78 2.7 NNW 11 15 6 8 1005.7 1005.7 0.6
19/04:00pm 25.4 26.6 20.0 72 3.5 NW 13 20 7 11 1005.5 1005.5 0.6
19/03:30pm 29.5 31.2 18.6 52 7.0 W 7 13 4 7 1005.2 1005.2 0.0
19/03:00pm 30.2 31.9 20.2 55 6.6 NW 11 15 6 8 1005.6 1005.6 0.0
19/02:30pm 29.5 30.2 18.9 53 6.9 WNW 13 19 7 10 1006.0 1006.0 0.0
19/02:00pm 29.7 30.9 20.0 56 6.4 NNW 13 17 7 9 1006.2 1006.2 0.0
19/01:30pm 28.7 29.0 19.6 58 5.9 WNW 17 24 9 13 1006.6 1006.6 0.0
19/01:00pm 29.6 30.9 19.3 54 6.7 WNW 11 17 6 9 1006.6 1006.6 0.0
19/12:30pm 29.4 30.6 20.0 57 6.2 NW 13 17 7 9 1006.1 1006.1 0.0
19/12:00pm 28.8 29.8 20.3 60 5.6 NNW 15 19 8 10 1006.4 1006.4 0.0
19/11:30am 27.9 29.1 20.7 65 4.8 NNW 15 19 8 10 1006.4 1006.4 0.0
19/11:00am 27.1 28.1 20.2 66 4.5 NNW 15 17 8 9 1006.7 1006.7 0.0
19/10:30am 25.6 28.2 20.4 73 3.4 N 7 13 4 7 1006.7 1006.7 0.0
19/10:00am 26.1 29.6 20.4 71 3.7 NNE 2 9 1 5 1007.0 1007.0 0.0
19/09:30am 24.1 26.4 19.8 77 2.8 N 7 11 4 6 1007.2 1007.2 0.0
19/09:00am 23.5 25.3 19.6 79 2.5 N 9 13 5 7 1007.2 1007.2 0.2
19/08:30am 23.1 24.6 19.7 81 2.2 N 11 13 6 7 1007.2 1007.2 0.2
19/08:00am 22.7 24.5 19.5 82 2.0 NNW 9 11 5 6 1006.8 1006.8 0.2
19/07:30am 22.7 23.6 19.3 81 2.2 N 13 17 7 9 1006.9 1006.9 0.2
19/07:00am 22.5 23.6 18.9 80 2.3 N 11 13 6 7 1006.2 1006.2 0.2
19/06:30am 22.6 22.5 18.8 79 2.4 N 17 22 9 12 1006.5 1006.5 0.2
19/06:00am 23.0 23.1 18.3 75 3.0 N 15 17 8 9 1006.3 1006.3 0.2
19/05:30am 23.5 22.8 18.2 72 3.3 NNW 19 22 10 12 1006.7 1006.7 0.2
19/05:00am 24.0 23.2 18.0 69 3.8 NNW 19 24 10 13 1006.9 1006.9 0.2
19/04:30am 24.1 23.0 17.8 68 3.9 NNW 20 28 11 15 1007.2 1007.2 0.2
19/04:00am 23.9 22.7 18.5 72 3.4 NNW 22 32 12 17 1007.3 1007.3 0.2
19/03:30am 23.6 21.6 19.1 76 2.9 NNW 28 41 15 22 1007.7 1007.7 0.2
19/03:00am 26.3 24.6 18.9 63 4.7 NNW 26 48 14 26 1007.8 1007.8 0.2
19/02:59am 26.3 24.9 18.9 63 4.7 NNW 24 48 13 26 1007.8 1007.8 0.2
19/02:30am 25.9 25.6 19.1 66 4.4 N 19 24 10 13 1007.7 1007.7 0.2
19/02:00am 24.4 24.8 19.0 72 3.4 NNW 15 17 8 9 1007.5 1007.5 0.2
19/01:30am 25.1 25.8 18.8 68 4.0 N 13 17 7 9 1007.8 1007.8 0.2
19/01:00am 25.1 25.3 18.5 67 4.2 N 15 17 8 9 1008.3 1008.3 0.2
19/12:30am 25.5 25.2 18.2 64 4.6 NNW 17 19 9 10 1008.4 1008.4 0.2
19/12:00am 26.4 25.7 18.3 61 5.2 N 19 24 10 13 1008.0 1008.0 0.2
 
Date/Time
EDT
Temp
°C
App
Temp
°C
Dew
Point
°C
Rel
Hum
%
Delta-T
°C
Wind Press
QNH
hPa
Press
MSL
hPa
Rain since
9am
mm
Dir  Spd
km/h
Gust
km/h
Spd
kts
Gust
kts
18/11:30pm 25.8 26.4 19.4 67 4.1 W 15 20 8 11 1008.3 1008.3 0.2
18/11:00pm 25.0 25.7 19.6 72 3.5 NE 15 20 8 11 1006.7 1006.7 0.2
18/10:30pm 23.9 25.2 19.2 75 3.0 N 11 15 6 8 1006.5 1006.5 0.2
18/10:00pm 25.3 25.9 19.4 70 3.8 NNE 15 20 8 11 1006.1 1006.1 0.2
18/09:30pm 25.7 25.3 19.3 67 4.1 NE 20 28 11 15 1005.6 1005.6 0.2

Other Formats:

Comma delimited format used in spreadsheet applications
http://www.bom.gov.au/fwo/IDN60801/IDN60801.94572.axf

JavaScript Object Notation format (JSON) in row-major order
http://www.bom.gov.au/fwo/IDN60801/IDN60801.94572.json